Silt, CO (81652)

5:16 PM MST on December 02, 2016 (GMT -0700)
Cactus Valley, Greg and Nella | | Change Station

Elev 5449 ft 39.55 °N, 107.73 °W | Updated 6 minutes ago

Overcast
Overcast
30.3 °F
Feels Like 22 °F
N
10.0
Wind Variable Wind from WNW
Gusts 15.0 mph

Today
High -- | Low -- °F
--% Chance of Precip.
Yesterday
High -- | Low -- °F
Precip. -- in
Pressure 30.19 in
Visibility 10.0 miles
Clouds Mostly Cloudy 5000 ft
Overcast 7000 ft
Windchill 22 °F
Dew Point 20 °F
Humidity 67%
Rainfall 0.00 in
Snow Depth Not available.
7:13 AM 4:46 PM
Waxing Crescent, 11% visible
METAR KRIL 022353Z AUTO 32016KT 10SM BKN050 OVC070 M01/M07 A3012 RMK AO2 SLP223 T10061067 10022 21011 53017
Pressure 30.19 in
Visibility 10.0 miles
Clouds Mostly Cloudy 5000 ft
Overcast 7000 ft
Windchill 22 °F
Dew Point 20 °F
Humidity 67%
Rainfall 0.00 in
Snow Depth Not available.
7:13 AM 4:46 PM
Waxing Crescent, 11% visible
METAR KRIL 022353Z AUTO 32016KT 10SM BKN050 OVC070 M01/M07 A3012 RMK AO2 SLP223 T10061067 10022 21011 53017

10-Day Weather Forecast

Almanac

Astronomy

Dec. 02, 2016 Rise Set
Actual Time
Civil Twilight
Nautical Twilight
Astronomical Twilight
Moon
Length of Visible Light
Length of Day
Tomorrow will be .
, % of the Moon is Illuminated

Today's Extremes

State Highs State Lows

Community

WunderPhotos

Upload Photos

1,955,379 photos uploaded!

WunderBlog® & News

Nearby

Air Quality

  Air Quality AQ Index Pollutant
Not available.

Snow Depth

Station Depth Elevation

Earthquake Activity

City Distance Mag. Time & Date
Minimum magnitude displayed is 2.5.

Coastal Water Temperatures

Place Temperature

Stations

Nearby Weather Stations

Station Location Temp. Windchill Dew Point Humidity Wind Precip. Elev Updated Type
                   

Watches & Warnings

There are currently no watches in effect.